createdAt,value
2023-02-09T00:02:01.541Z,-5.73
2023-02-09T00:07:04.659Z,-5.71
2023-02-09T00:12:26.464Z,-5.78
2023-02-09T00:17:29.334Z,-5.87
2023-02-09T00:22:32.859Z,-5.96
2023-02-09T00:27:35.950Z,-6.01
2023-02-09T00:32:39.041Z,-6.02
2023-02-09T00:37:42.041Z,-6.06
2023-02-09T00:42:44.973Z,-6.13
2023-02-09T00:47:48.251Z,-6.25
2023-02-09T00:52:51.187Z,-6.32
2023-02-09T00:57:54.058Z,-6.36
2023-02-09T01:02:57.464Z,-6.43
2023-02-09T01:08:00.527Z,-6.56
2023-02-09T01:13:03.338Z,-6.71
2023-02-09T01:18:07.719Z,-6.70
2023-02-09T01:23:10.629Z,-6.61
2023-02-09T01:28:13.491Z,-6.58
2023-02-09T01:33:16.845Z,-6.54
2023-02-09T01:38:19.733Z,-6.53
2023-02-09T01:43:22.636Z,-6.49
2023-02-09T01:48:28.533Z,-6.50
2023-02-09T01:53:31.448Z,-6.47
2023-02-09T01:58:34.377Z,-6.51
2023-02-09T02:03:37.200Z,-6.61
2023-02-09T02:08:58.081Z,-6.68
2023-02-09T02:14:01.010Z,-6.66
2023-02-09T02:19:37.940Z,-6.56
2023-02-09T02:24:53.259Z,-6.37
2023-02-09T02:30:17.645Z,-6.16
2023-02-09T02:35:41.579Z,-6.15
2023-02-09T02:41:19.939Z,-6.27
2023-02-09T02:46:35.844Z,-6.24
2023-02-09T02:51:46.817Z,-6.16
2023-02-09T02:56:54.647Z,-6.08
2023-02-09T03:02:13.740Z,-5.96
2023-02-09T03:07:17.589Z,-5.90
2023-02-09T03:12:37.458Z,-5.87
2023-02-09T03:17:47.899Z,-5.78
2023-02-09T03:22:58.404Z,-5.72
2023-02-09T03:28:23.622Z,-5.70
2023-02-09T03:33:31.373Z,-5.72
2023-02-09T03:38:34.281Z,-5.73
2023-02-09T03:43:56.485Z,-5.67
2023-02-09T03:48:59.870Z,-5.61
2023-02-09T03:54:03.897Z,-5.57
2023-02-09T03:59:06.899Z,-5.68
2023-02-09T04:04:09.868Z,-5.72
2023-02-09T04:09:12.816Z,-5.66
2023-02-09T04:14:15.823Z,-5.58
2023-02-09T04:19:18.734Z,-5.55
2023-02-09T04:24:21.930Z,-5.58
2023-02-09T04:29:25.257Z,-5.65
2023-02-09T04:34:28.121Z,-5.56
2023-02-09T04:39:31.042Z,-5.45
2023-02-09T04:44:34.937Z,-5.43
2023-02-09T04:49:37.761Z,-5.43
2023-02-09T04:54:40.677Z,-5.44
2023-02-09T04:59:45.035Z,-5.45
2023-02-09T05:04:49.291Z,-5.45
2023-02-09T05:09:54.774Z,-5.40
2023-02-09T05:14:57.774Z,-5.40
2023-02-09T05:20:00.595Z,-5.53
2023-02-09T05:25:03.444Z,-5.67
2023-02-09T05:30:06.868Z,-5.70
2023-02-09T05:35:10.722Z,-5.77
2023-02-09T05:40:13.970Z,-5.82
2023-02-09T05:45:17.626Z,-5.84
2023-02-09T05:50:20.578Z,-5.93
2023-02-09T05:55:23.540Z,-6.06
2023-02-09T06:00:27.342Z,-6.12
2023-02-09T06:05:30.260Z,-6.19
2023-02-09T06:10:33.257Z,-6.27
2023-02-09T06:15:36.218Z,-6.31
2023-02-09T06:20:39.221Z,-6.35
2023-02-09T06:25:42.424Z,-6.38
2023-02-09T06:30:50.794Z,-6.40
2023-02-09T06:35:54.376Z,-6.44
2023-02-09T06:40:57.401Z,-6.47
2023-02-09T06:46:09.420Z,-6.49
2023-02-09T06:51:14.833Z,-6.52
2023-02-09T06:56:18.290Z,-6.46
2023-02-09T07:01:21.141Z,-6.47
2023-02-09T07:06:24.054Z,-6.50
2023-02-09T07:11:27.021Z,-6.43
2023-02-09T07:16:30.236Z,-6.38
2023-02-09T07:21:33.078Z,-6.32
2023-02-09T07:26:35.973Z,-6.24
2023-02-09T07:31:39.180Z,-6.21
2023-02-09T07:36:42.282Z,-6.08
2023-02-09T07:41:48.419Z,-5.96
2023-02-09T07:46:52.070Z,-5.87
2023-02-09T07:51:54.947Z,-5.82
2023-02-09T07:56:58.173Z,-5.82
2023-02-09T08:02:01.071Z,-5.72
2023-02-09T08:07:03.970Z,-5.68
2023-02-09T08:12:08.109Z,-5.69
2023-02-09T08:17:21.132Z,-5.64
2023-02-09T08:22:24.811Z,-5.54
2023-02-09T08:27:28.620Z,-5.38
2023-02-09T08:32:31.635Z,-5.25
2023-02-09T08:37:34.564Z,-5.14
2023-02-09T08:42:37.487Z,-5.05
2023-02-09T08:47:40.475Z,-4.96
2023-02-09T08:52:43.432Z,-4.82
2023-02-09T08:57:46.437Z,-4.65
2023-02-09T09:02:49.274Z,-4.46
2023-02-09T09:07:52.227Z,-4.31
2023-02-09T09:12:55.186Z,-4.20
2023-02-09T09:17:58.077Z,-4.09
2023-02-09T09:23:02.140Z,-3.99
2023-02-09T09:28:05.411Z,-3.82
2023-02-09T09:33:08.362Z,-3.61
2023-02-09T09:38:11.331Z,-3.46
2023-02-09T09:43:22.105Z,-3.33
2023-02-09T09:48:27.838Z,-3.21
2023-02-09T09:53:33.940Z,-3.10
2023-02-09T09:58:41.688Z,-2.92
2023-02-09T10:03:44.641Z,-2.72
2023-02-09T10:09:33.568Z,-2.56
2023-02-09T10:14:36.757Z,-2.40
2023-02-09T10:19:39.694Z,-2.27
2023-02-09T10:24:42.674Z,-2.14
2023-02-09T10:29:45.581Z,-2.03
2023-02-09T10:34:51.908Z,-1.84
2023-02-09T10:40:32.307Z,-1.61
2023-02-09T10:45:43.240Z,-1.41
2023-02-09T10:50:50.266Z,-1.25
2023-02-09T10:56:05.851Z,-1.08
2023-02-09T11:01:08.977Z,-0.88
2023-02-09T11:06:20.519Z,-0.63
2023-02-09T11:11:37.818Z,-0.32
2023-02-09T11:16:50.304Z,0.01
2023-02-09T11:22:19.560Z,0.27
2023-02-09T11:27:31.489Z,0.45
2023-02-09T11:33:02.592Z,0.49
2023-02-09T11:38:15.963Z,0.60
2023-02-09T11:43:25.317Z,0.68
2023-02-09T11:48:31.867Z,0.77
2023-02-09T11:54:04.063Z,0.90
2023-02-09T11:59:37.202Z,1.00
2023-02-09T12:05:00.684Z,1.14
2023-02-09T12:10:28.615Z,1.35
2023-02-09T12:15:59.296Z,1.58
2023-02-09T12:21:06.822Z,1.82
2023-02-09T12:26:16.422Z,2.03
2023-02-09T12:31:22.196Z,2.28
2023-02-09T12:36:28.933Z,2.52
2023-02-09T12:41:34.703Z,2.78
2023-02-09T12:46:54.543Z,2.98
2023-02-09T12:52:00.617Z,3.07
2023-02-09T12:57:16.196Z,3.13
2023-02-09T13:02:24.261Z,3.19
2023-02-09T13:07:43.037Z,3.24
2023-02-09T13:13:08.933Z,3.26
2023-02-09T13:18:50.684Z,3.31
2023-02-09T13:24:11.677Z,3.32
2023-02-09T13:29:22.252Z,3.30
2023-02-09T13:35:08.505Z,3.29
2023-02-09T13:40:25.768Z,3.26
2023-02-09T13:45:30.066Z,3.20
2023-02-09T13:50:57.100Z,3.06
2023-02-09T13:56:00.918Z,2.90
2023-02-09T14:01:35.227Z,2.81
2023-02-09T14:06:50.176Z,2.68
2023-02-09T14:11:55.996Z,2.62
2023-02-09T14:17:26.733Z,2.60
2023-02-09T14:22:35.561Z,2.57
2023-02-09T14:27:39.342Z,2.53
2023-02-09T14:32:45.486Z,2.45
2023-02-09T14:37:52.194Z,2.35
2023-02-09T14:43:11.058Z,2.28
2023-02-09T14:48:25.161Z,2.14
2023-02-09T14:53:31.811Z,2.04
2023-02-09T14:58:34.798Z,1.97
2023-02-09T15:03:37.698Z,1.86
2023-02-09T15:08:40.918Z,1.72
2023-02-09T15:13:43.885Z,1.59
2023-02-09T15:18:47.406Z,1.49
2023-02-09T15:23:50.433Z,1.37
2023-02-09T15:28:54.225Z,1.23
2023-02-09T15:33:57.305Z,1.11
2023-02-09T15:39:00.380Z,0.98
2023-02-09T15:44:35.828Z,0.85
2023-02-09T15:49:38.823Z,0.72
2023-02-09T15:54:42.332Z,0.59
2023-02-09T15:59:46.507Z,0.45
2023-02-09T16:04:49.763Z,0.32
2023-02-09T16:09:53.470Z,0.19
2023-02-09T16:14:56.661Z,0.07
2023-02-09T16:19:59.813Z,-0.05
2023-02-09T16:25:25.577Z,-0.15
2023-02-09T16:30:30.646Z,-0.26
2023-02-09T16:35:35.332Z,-0.34
2023-02-09T16:40:38.578Z,-0.42
2023-02-09T16:45:44.726Z,-0.46
2023-02-09T16:50:53.402Z,-0.50
2023-02-09T16:55:56.221Z,-0.54
2023-02-09T17:00:59.198Z,-0.57
2023-02-09T17:06:03.140Z,-0.60
2023-02-09T17:11:06.355Z,-0.61
2023-02-09T17:16:16.145Z,-0.64
2023-02-09T17:21:29.493Z,-0.69
2023-02-09T17:26:32.405Z,-0.73
2023-02-09T17:31:50.707Z,-0.77
2023-02-09T17:36:56.541Z,-0.82
2023-02-09T17:41:59.995Z,-0.88
2023-02-09T17:47:03.505Z,-0.93
2023-02-09T17:52:06.401Z,-0.98
2023-02-09T17:57:14.157Z,-1.03
2023-02-09T18:02:18.026Z,-1.09
2023-02-09T18:07:21.064Z,-1.13
2023-02-09T18:12:29.455Z,-1.17
2023-02-09T18:17:32.756Z,-1.21
2023-02-09T18:22:35.591Z,-1.28
2023-02-09T18:27:38.462Z,-1.34
2023-02-09T18:32:42.040Z,-1.39
2023-02-09T18:37:47.173Z,-1.43
2023-02-09T18:42:51.406Z,-1.46
2023-02-09T18:47:54.522Z,-1.47
2023-02-09T18:53:03.208Z,-1.50
2023-02-09T18:58:06.934Z,-1.50
2023-02-09T19:03:10.242Z,-1.50
2023-02-09T19:08:13.936Z,-1.51
2023-02-09T19:13:16.806Z,-1.52
2023-02-09T19:18:19.768Z,-1.53
2023-02-09T19:23:24.699Z,-1.54
2023-02-09T19:28:27.978Z,-1.54
2023-02-09T19:33:30.953Z,-1.54
2023-02-09T19:38:33.894Z,-1.56
2023-02-09T19:43:36.769Z,-1.56
2023-02-09T19:48:40.281Z,-1.57
2023-02-09T19:53:45.809Z,-1.59
2023-02-09T19:58:48.802Z,-1.61
2023-02-09T20:03:52.399Z,-1.65
2023-02-09T20:08:56.378Z,-1.66
2023-02-09T20:19:07.205Z,-1.74
2023-02-09T20:24:12.180Z,-1.80
2023-02-09T20:29:16.886Z,-1.83
2023-02-09T20:34:21.426Z,-1.87
2023-02-09T20:39:24.564Z,-1.89
2023-02-09T20:44:46.503Z,-1.84
2023-02-09T20:49:49.389Z,-1.77
2023-02-09T20:54:52.320Z,-1.73
2023-02-09T20:59:57.526Z,-1.74
2023-02-09T21:05:00.527Z,-1.75
2023-02-09T21:10:03.544Z,-1.75
2023-02-09T21:15:07.074Z,-1.75
2023-02-09T21:20:10.195Z,-1.72
2023-02-09T21:25:13.932Z,-1.69
2023-02-09T21:30:16.855Z,-1.67
2023-02-09T21:35:19.854Z,-1.65
2023-02-09T21:40:23.807Z,-1.65
2023-02-09T21:45:26.740Z,-1.65
2023-02-09T21:50:29.683Z,-1.63
2023-02-09T21:55:32.493Z,-1.61
2023-02-09T22:00:35.915Z,-1.60
2023-02-09T22:05:38.819Z,-1.58
2023-02-09T22:10:42.670Z,-1.56
2023-02-09T22:15:45.786Z,-1.55
2023-02-09T22:20:49.246Z,-1.53
2023-02-09T22:25:58.522Z,-1.52
2023-02-09T22:31:10.140Z,-1.50
2023-02-09T22:36:16.109Z,-1.48
2023-02-09T22:41:21.921Z,-1.45
2023-02-09T22:46:31.696Z,-1.44
2023-02-09T22:51:35.723Z,-1.41
2023-02-09T22:56:38.732Z,-1.40
2023-02-09T23:01:41.972Z,-1.38
2023-02-09T23:06:45.280Z,-1.39
2023-02-09T23:11:48.162Z,-1.41
2023-02-09T23:16:51.521Z,-1.42
2023-02-09T23:21:56.104Z,-1.43
2023-02-09T23:26:59.074Z,-1.45
2023-02-09T23:32:01.949Z,-1.47
2023-02-09T23:37:13.335Z,-1.50
2023-02-09T23:42:21.751Z,-1.51
2023-02-09T23:47:24.701Z,-1.54
2023-02-09T23:52:27.667Z,-1.59
2023-02-09T23:57:31.245Z,-1.62
